sensor_id;sensor_type;location;lat;lon;timestamp;pressure;altitude;pressure_sealevel;temperature;humidity
8573;BME280;4324;42.012;24.872;2023-08-30T00:01:30;97721.66;;;26.96;43.10
8573;BME280;4324;42.012;24.872;2023-08-30T00:03:57;97722.88;;;26.90;43.66
8573;BME280;4324;42.012;24.872;2023-08-30T00:06:24;97731.13;;;26.85;44.15
8573;BME280;4324;42.012;24.872;2023-08-30T00:08:52;97735.72;;;26.84;44.39
8573;BME280;4324;42.012;24.872;2023-08-30T00:11:19;97730.94;;;26.81;44.46
8573;BME280;4324;42.012;24.872;2023-08-30T00:13:46;97732.53;;;26.82;44.52
8573;BME280;4324;42.012;24.872;2023-08-30T00:16:13;97730.94;;;26.81;45.18
8573;BME280;4324;42.012;24.872;2023-08-30T00:18:42;97724.66;;;26.81;45.17
8573;BME280;4324;42.012;24.872;2023-08-30T00:21:09;97727.19;;;26.77;45.35
8573;BME280;4324;42.012;24.872;2023-08-30T00:23:36;97726.69;;;26.75;45.66
8573;BME280;4324;42.012;24.872;2023-08-30T00:26:04;97723.47;;;26.73;45.20
8573;BME280;4324;42.012;24.872;2023-08-30T00:28:31;97728.41;;;26.71;44.81
8573;BME280;4324;42.012;24.872;2023-08-30T00:30:58;97723.91;;;26.66;44.60
8573;BME280;4324;42.012;24.872;2023-08-30T00:33:25;97723.69;;;26.63;44.49
8573;BME280;4324;42.012;24.872;2023-08-30T00:35:55;97723.50;;;26.59;44.20
8573;BME280;4324;42.012;24.872;2023-08-30T00:38:22;97718.66;;;26.56;43.62
8573;BME280;4324;42.012;24.872;2023-08-30T00:40:49;97721.44;;;26.51;43.33
8573;BME280;4324;42.012;24.872;2023-08-30T00:43:17;97725.63;;;26.43;43.42
8573;BME280;4324;42.012;24.872;2023-08-30T00:45:44;97732.88;;;26.34;43.13
8573;BME280;4324;42.012;24.872;2023-08-30T00:48:11;97728.44;;;26.24;42.98
8573;BME280;4324;42.012;24.872;2023-08-30T00:50:39;97734.66;;;26.25;42.29
8573;BME280;4324;42.012;24.872;2023-08-30T00:53:06;97739.38;;;26.19;42.09
8573;BME280;4324;42.012;24.872;2023-08-30T00:55:34;97745.72;;;26.15;42.08
8573;BME280;4324;42.012;24.872;2023-08-30T00:58:01;97749.59;;;26.09;42.11
8573;BME280;4324;42.012;24.872;2023-08-30T01:00:30;97750.00;;;26.02;41.49
8573;BME280;4324;42.012;24.872;2023-08-30T01:02:57;97751.69;;;25.98;42.73
8573;BME280;4324;42.012;24.872;2023-08-30T01:05:24;97730.03;;;25.79;43.17
8573;BME280;4324;42.012;24.872;2023-08-30T01:07:52;97755.88;;;25.90;43.39
8573;BME280;4324;42.012;24.872;2023-08-30T01:10:24;97746.81;;;25.81;43.93
8573;BME280;4324;42.012;24.872;2023-08-30T01:13:00;97747.97;;;25.75;44.15
8573;BME280;4324;42.012;24.872;2023-08-30T01:15:34;97747.97;;;25.75;43.64
8573;BME280;4324;42.012;24.872;2023-08-30T01:18:03;97744.72;;;25.73;44.87
8573;BME280;4324;42.012;24.872;2023-08-30T01:20:35;97749.94;;;25.69;44.63
8573;BME280;4324;42.012;24.872;2023-08-30T01:23:06;97741.59;;;25.66;44.50
8573;BME280;4324;42.012;24.872;2023-08-30T01:25:45;97750.94;;;25.73;44.61
8573;BME280;4324;42.012;24.872;2023-08-30T01:28:15;97740.63;;;25.75;43.96
8573;BME280;4324;42.012;24.872;2023-08-30T01:30:43;97733.09;;;25.72;43.52
8573;BME280;4324;42.012;24.872;2023-08-30T01:33:13;97749.34;;;25.72;43.32
8573;BME280;4324;42.012;24.872;2023-08-30T01:35:41;97761.63;;;25.70;43.40
8573;BME280;4324;42.012;24.872;2023-08-30T01:38:09;97776.75;;;25.71;43.52
8573;BME280;4324;42.012;24.872;2023-08-30T01:40:37;97777.03;;;25.69;43.85
8573;BME280;4324;42.012;24.872;2023-08-30T01:43:06;97780.16;;;25.63;44.22
8573;BME280;4324;42.012;24.872;2023-08-30T01:45:38;97785.25;;;25.64;44.57
8573;BME280;4324;42.012;24.872;2023-08-30T01:48:07;97793.03;;;25.71;44.15
8573;BME280;4324;42.012;24.872;2023-08-30T01:50:36;97794.56;;;25.77;44.26
8573;BME280;4324;42.012;24.872;2023-08-30T01:53:05;97788.56;;;25.80;44.13
8573;BME280;4324;42.012;24.872;2023-08-30T01:55:32;97792.91;;;25.81;44.24
8573;BME280;4324;42.012;24.872;2023-08-30T01:57:59;97785.84;;;25.80;44.24
8573;BME280;4324;42.012;24.872;2023-08-30T02:00:26;97764.38;;;25.65;44.44
8573;BME280;4324;42.012;24.872;2023-08-30T02:02:54;97782.06;;;25.81;44.23
8573;BME280;4324;42.012;24.872;2023-08-30T02:05:21;97781.53;;;25.79;43.95
8573;BME280;4324;42.012;24.872;2023-08-30T02:07:51;97776.69;;;25.76;44.14
8573;BME280;4324;42.012;24.872;2023-08-30T02:10:23;97774.56;;;25.73;43.84
8573;BME280;4324;42.012;24.872;2023-08-30T02:12:53;97778.47;;;25.67;44.13
8573;BME280;4324;42.012;24.872;2023-08-30T02:15:21;97773.63;;;25.64;44.11
8573;BME280;4324;42.012;24.872;2023-08-30T02:17:51;97775.81;;;25.62;43.93
8573;BME280;4324;42.012;24.872;2023-08-30T02:20:23;97775.81;;;25.62;44.26
8573;BME280;4324;42.012;24.872;2023-08-30T02:22:51;97772.06;;;25.57;43.80
8573;BME280;4324;42.012;24.872;2023-08-30T02:25:20;97778.38;;;25.53;43.72
8573;BME280;4324;42.012;24.872;2023-08-30T02:27:49;97764.53;;;25.54;43.86
8573;BME280;4324;42.012;24.872;2023-08-30T02:30:16;97771.06;;;25.53;43.81
8573;BME280;4324;42.012;24.872;2023-08-30T02:32:43;97771.63;;;25.50;43.51
8573;BME280;4324;42.012;24.872;2023-08-30T02:35:10;97770.13;;;25.44;43.98
8573;BME280;4324;42.012;24.872;2023-08-30T02:37:38;97775.00;;;25.42;44.33
8573;BME280;4324;42.012;24.872;2023-08-30T02:40:06;97781.00;;;25.39;43.70
8573;BME280;4324;42.012;24.872;2023-08-30T02:42:33;97774.63;;;25.30;44.04
8573;BME280;4324;42.012;24.872;2023-08-30T02:45:00;97779.03;;;25.26;43.87
8573;BME280;4324;42.012;24.872;2023-08-30T02:47:27;97771.47;;;25.23;43.84
8573;BME280;4324;42.012;24.872;2023-08-30T02:49:54;97762.56;;;25.22;44.06
8573;BME280;4324;42.012;24.872;2023-08-30T02:52:21;97767.97;;;25.22;44.24
8573;BME280;4324;42.012;24.872;2023-08-30T02:54:48;97764.16;;;25.23;44.15
8573;BME280;4324;42.012;24.872;2023-08-30T02:57:14;97760.69;;;25.18;43.95
8573;BME280;4324;42.012;24.872;2023-08-30T02:59:41;97779.63;;;25.23;44.08
8573;BME280;4324;42.012;24.872;2023-08-30T03:02:08;97770.97;;;25.21;44.44
8573;BME280;4324;42.012;24.872;2023-08-30T03:04:35;97775.06;;;25.18;44.40
8573;BME280;4324;42.012;24.872;2023-08-30T03:07:04;97784.56;;;25.16;44.84
8573;BME280;4324;42.012;24.872;2023-08-30T03:09:30;97774.03;;;25.14;44.56
8573;BME280;4324;42.012;24.872;2023-08-30T03:11:59;97772.13;;;25.15;44.43
8573;BME280;4324;42.012;24.872;2023-08-30T03:14:25;97787.22;;;25.21;44.22
8573;BME280;4324;42.012;24.872;2023-08-30T03:16:52;97791.25;;;25.23;44.08
8573;BME280;4324;42.012;24.872;2023-08-30T03:19:19;97798.00;;;25.26;44.24
8573;BME280;4324;42.012;24.872;2023-08-30T03:21:46;97805.59;;;25.24;44.00
8573;BME280;4324;42.012;24.872;2023-08-30T03:24:13;97811.31;;;25.22;43.90
8573;BME280;4324;42.012;24.872;2023-08-30T03:26:42;97808.31;;;25.24;44.06
8573;BME280;4324;42.012;24.872;2023-08-30T03:29:10;97806.63;;;25.28;44.13
8573;BME280;4324;42.012;24.872;2023-08-30T03:31:37;97815.78;;;25.32;43.76
8573;BME280;4324;42.012;24.872;2023-08-30T03:34:04;97814.09;;;25.36;44.05
8573;BME280;4324;42.012;24.872;2023-08-30T03:36:31;97817.63;;;25.37;43.87
8573;BME280;4324;42.012;24.872;2023-08-30T03:38:58;97812.72;;;25.39;43.92
8573;BME280;4324;42.012;24.872;2023-08-30T03:41:25;97813.81;;;25.38;43.79
8573;BME280;4324;42.012;24.872;2023-08-30T03:43:55;97826.00;;;25.40;44.00
8573;BME280;4324;42.012;24.872;2023-08-30T03:46:23;97820.03;;;25.38;43.98
8573;BME280;4324;42.012;24.872;2023-08-30T03:48:49;97820.03;;;25.38;43.69
8573;BME280;4324;42.012;24.872;2023-08-30T03:51:17;97832.47;;;25.39;43.63
8573;BME280;4324;42.012;24.872;2023-08-30T03:53:44;97828.69;;;25.40;43.36
8573;BME280;4324;42.012;24.872;2023-08-30T03:56:11;97824.88;;;25.41;43.76
8573;BME280;4324;42.012;24.872;2023-08-30T03:58:38;97827.03;;;25.44;43.86
8573;BME280;4324;42.012;24.872;2023-08-30T04:01:04;97836.75;;;25.45;43.81
8573;BME280;4324;42.012;24.872;2023-08-30T04:03:34;97835.66;;;25.46;43.83
8573;BME280;4324;42.012;24.872;2023-08-30T04:06:01;97806.63;;;25.28;43.25
8573;BME280;4324;42.012;24.872;2023-08-30T04:08:27;97831.91;;;25.42;43.26
8573;BME280;4324;42.012;24.872;2023-08-30T04:10:54;97844.59;;;25.47;43.19
8573;BME280;4324;42.012;24.872;2023-08-30T04:13:21;97839.97;;;25.47;43.71
8573;BME280;4324;42.012;24.872;2023-08-30T04:15:48;97851.88;;;25.51;43.64
8573;BME280;4324;42.012;24.872;2023-08-30T04:18:15;97849.88;;;25.57;43.33
8573;BME280;4324;42.012;24.872;2023-08-30T04:20:47;97839.84;;;25.57;43.54
8573;BME280;4324;42.012;24.872;2023-08-30T04:23:13;97847.03;;;25.67;43.22
8573;BME280;4324;42.012;24.872;2023-08-30T04:25:40;97851.56;;;25.72;43.42
8573;BME280;4324;42.012;24.872;2023-08-30T04:28:07;97859.13;;;25.75;43.43
8573;BME280;4324;42.012;24.872;2023-08-30T04:30:36;97854.81;;;25.74;43.34
8573;BME280;4324;42.012;24.872;2023-08-30T04:33:03;97855.84;;;25.78;43.27
8573;BME280;4324;42.012;24.872;2023-08-30T04:35:30;97857.09;;;25.86;43.33
8573;BME280;4324;42.012;24.872;2023-08-30T04:37:59;97854.09;;;25.87;43.57
8573;BME280;4324;42.012;24.872;2023-08-30T04:40:27;97855.31;;;25.95;43.83
8573;BME280;4324;42.012;24.872;2023-08-30T04:42:55;97850.06;;;26.03;43.65
8573;BME280;4324;42.012;24.872;2023-08-30T04:45:22;97843.81;;;26.03;43.41
8573;BME280;4324;42.012;24.872;2023-08-30T04:47:49;97850.50;;;26.11;43.44
8573;BME280;4324;42.012;24.872;2023-08-30T04:50:15;97858.25;;;26.17;43.73
8573;BME280;4324;42.012;24.872;2023-08-30T04:52:43;97850.75;;;26.28;43.12
8573;BME280;4324;42.012;24.872;2023-08-30T04:55:11;97832.84;;;26.27;43.45
8573;BME280;4324;42.012;24.872;2023-08-30T04:57:38;97845.06;;;26.43;43.34
8573;BME280;4324;42.012;24.872;2023-08-30T05:00:10;97843.38;;;26.47;43.21
8573;BME280;4324;42.012;24.872;2023-08-30T05:02:38;97845.50;;;26.50;43.36
8573;BME280;4324;42.012;24.872;2023-08-30T05:05:05;97849.56;;;26.53;43.34
8573;BME280;4324;42.012;24.872;2023-08-30T05:07:32;97849.75;;;26.57;43.37
8573;BME280;4324;42.012;24.872;2023-08-30T05:09:59;97844.13;;;26.53;43.01
8573;BME280;4324;42.012;24.872;2023-08-30T05:12:28;97850.19;;;26.64;43.28
8573;BME280;4324;42.012;24.872;2023-08-30T05:14:55;97852.00;;;26.68;43.41
8573;BME280;4324;42.012;24.872;2023-08-30T05:17:22;97861.94;;;26.73;43.17
8573;BME280;4324;42.012;24.872;2023-08-30T05:19:49;97849.16;;;26.73;43.25
8573;BME280;4324;42.012;24.872;2023-08-30T05:22:16;97858.47;;;26.86;43.18
8573;BME280;4324;42.012;24.872;2023-08-30T05:24:42;97851.63;;;26.89;42.97
8573;BME280;4324;42.012;24.872;2023-08-30T05:27:09;97856.16;;;26.93;42.94
8573;BME280;4324;42.012;24.872;2023-08-30T05:29:38;97854.44;;;26.97;42.66
8573;BME280;4324;42.012;24.872;2023-08-30T05:32:05;97848.41;;;27.00;42.90
8573;BME280;4324;42.012;24.872;2023-08-30T05:34:32;97845.91;;;27.04;42.88
8573;BME280;4324;42.012;24.872;2023-08-30T05:36:59;97841.38;;;27.13;42.89
8573;BME280;4324;42.012;24.872;2023-08-30T05:39:25;97849.03;;;27.25;42.68
8573;BME280;4324;42.012;24.872;2023-08-30T05:41:52;97854.28;;;27.35;42.53
8573;BME280;4324;42.012;24.872;2023-08-30T05:44:19;97853.97;;;27.37;42.18
8573;BME280;4324;42.012;24.872;2023-08-30T05:46:47;97859.81;;;27.30;42.29
8573;BME280;4324;42.012;24.872;2023-08-30T05:49:14;97860.63;;;27.17;42.70
8573;BME280;4324;42.012;24.872;2023-08-30T05:51:41;97866.53;;;27.05;43.39
8573;BME280;4324;42.012;24.872;2023-08-30T05:54:08;97871.22;;;26.99;43.81
8573;BME280;4324;42.012;24.872;2023-08-30T05:56:35;97872.53;;;26.88;44.92
8573;BME280;4324;42.012;24.872;2023-08-30T05:59:01;97870.91;;;26.73;46.34
8573;BME280;4324;42.012;24.872;2023-08-30T06:01:28;97866.75;;;26.62;47.15
8573;BME280;4324;42.012;24.872;2023-08-30T06:03:57;97869.25;;;26.59;48.20
8573;BME280;4324;42.012;24.872;2023-08-30T06:06:23;97859.41;;;26.49;48.49
8573;BME280;4324;42.012;24.872;2023-08-30T06:08:52;97876.38;;;26.54;49.16
8573;BME280;4324;42.012;24.872;2023-08-30T06:11:19;97875.31;;;26.56;49.64
8573;BME280;4324;42.012;24.872;2023-08-30T06:13:46;97871.25;;;26.53;49.99
8573;BME280;4324;42.012;24.872;2023-08-30T06:16:13;97872.88;;;26.54;50.09
8573;BME280;4324;42.012;24.872;2023-08-30T06:18:47;97877.06;;;26.46;50.37
8573;BME280;4324;42.012;24.872;2023-08-30T06:21:15;97877.06;;;26.46;51.03
8573;BME280;4324;42.012;24.872;2023-08-30T06:23:42;97888.06;;;26.36;52.10
8573;BME280;4324;42.012;24.872;2023-08-30T06:26:08;97883.56;;;26.13;52.67
8573;BME280;4324;42.012;24.872;2023-08-30T06:28:35;97895.50;;;26.12;53.22
8573;BME280;4324;42.012;24.872;2023-08-30T06:31:02;97901.59;;;26.03;54.11
8573;BME280;4324;42.012;24.872;2023-08-30T06:33:29;97899.53;;;25.95;54.42
8573;BME280;4324;42.012;24.872;2023-08-30T06:35:59;97903.34;;;25.94;54.77
8573;BME280;4324;42.012;24.872;2023-08-30T06:38:27;97890.53;;;26.00;54.87
8573;BME280;4324;42.012;24.872;2023-08-30T06:40:57;97886.28;;;25.94;54.98
8573;BME280;4324;42.012;24.872;2023-08-30T06:43:24;97897.41;;;26.11;54.96
8573;BME280;4324;42.012;24.872;2023-08-30T06:45:51;97904.66;;;26.16;55.32
8573;BME280;4324;42.012;24.872;2023-08-30T06:48:18;97912.28;;;26.14;54.78
8573;BME280;4324;42.012;24.872;2023-08-30T06:50:45;97910.47;;;26.09;54.76
8573;BME280;4324;42.012;24.872;2023-08-30T06:53:12;97913.91;;;26.15;55.22
8573;BME280;4324;42.012;24.872;2023-08-30T06:55:40;97914.97;;;26.33;54.83
8573;BME280;4324;42.012;24.872;2023-08-30T06:58:07;97918.75;;;26.56;54.10
8573;BME280;4324;42.012;24.872;2023-08-30T07:00:33;97912.34;;;26.79;53.81
8573;BME280;4324;42.012;24.872;2023-08-30T07:03:00;97916.63;;;26.99;53.35
8573;BME280;4324;42.012;24.872;2023-08-30T07:05:27;97911.22;;;27.13;53.19
8573;BME280;4324;42.012;24.872;2023-08-30T07:07:54;97910.84;;;27.33;52.80
8573;BME280;4324;42.012;24.872;2023-08-30T07:10:21;97905.81;;;27.40;52.65
8573;BME280;4324;42.012;24.872;2023-08-30T07:12:50;97915.66;;;27.50;52.60
8573;BME280;4324;42.012;24.872;2023-08-30T07:15:17;97908.50;;;27.54;52.39
8573;BME280;4324;42.012;24.872;2023-08-30T07:17:44;97912.22;;;27.58;52.55
8573;BME280;4324;42.012;24.872;2023-08-30T07:20:11;97919.69;;;27.66;52.43
8573;BME280;4324;42.012;24.872;2023-08-30T07:22:38;97914.38;;;27.75;51.79
8573;BME280;4324;42.012;24.872;2023-08-30T07:25:06;97922.31;;;27.85;51.83
8573;BME280;4324;42.012;24.872;2023-08-30T07:27:34;97914.25;;;27.80;51.76
8573;BME280;4324;42.012;24.872;2023-08-30T07:30:02;97923.53;;;27.79;51.82
8573;BME280;4324;42.012;24.872;2023-08-30T07:32:29;97919.22;;;27.78;52.03
8573;BME280;4324;42.012;24.872;2023-08-30T07:34:56;97918.09;;;27.79;51.87
8573;BME280;4324;42.012;24.872;2023-08-30T07:37:25;97921.41;;;27.76;51.94
8573;BME280;4324;42.012;24.872;2023-08-30T07:39:51;97916.78;;;27.77;51.93
8573;BME280;4324;42.012;24.872;2023-08-30T07:42:18;97919.09;;;27.83;51.67
8573;BME280;4324;42.012;24.872;2023-08-30T07:44:45;97914.84;;;27.77;51.25
8573;BME280;4324;42.012;24.872;2023-08-30T07:47:13;97911.44;;;27.85;51.05
8573;BME280;4324;42.012;24.872;2023-08-30T07:49:40;97922.72;;;27.92;50.99
8573;BME280;4324;42.012;24.872;2023-08-30T07:52:07;97921.84;;;28.06;50.80
8573;BME280;4324;42.012;24.872;2023-08-30T07:54:36;97925.47;;;28.15;50.73
8573;BME280;4324;42.012;24.872;2023-08-30T07:57:04;97917.59;;;28.13;50.87
8573;BME280;4324;42.012;24.872;2023-08-30T07:59:32;97917.19;;;28.20;51.02
8573;BME280;4324;42.012;24.872;2023-08-30T08:01:59;97915.31;;;28.29;50.72
8573;BME280;4324;42.012;24.872;2023-08-30T08:04:28;97921.56;;;28.43;50.58
8573;BME280;4324;42.012;24.872;2023-08-30T08:06:55;97921.31;;;28.54;50.37
8573;BME280;4324;42.012;24.872;2023-08-30T08:09:22;97911.22;;;28.54;49.96
8573;BME280;4324;42.012;24.872;2023-08-30T08:11:48;97895.78;;;28.41;49.79
8573;BME280;4324;42.012;24.872;2023-08-30T08:14:15;97927.13;;;28.61;49.82
8573;BME280;4324;42.012;24.872;2023-08-30T08:16:42;97921.28;;;28.76;49.75
8573;BME280;4324;42.012;24.872;2023-08-30T08:19:13;97917.44;;;29.00;49.30
8573;BME280;4324;42.012;24.872;2023-08-30T08:21:42;97888.72;;;28.93;48.94
8573;BME280;4324;42.012;24.872;2023-08-30T08:24:08;97915.41;;;29.05;49.48
8573;BME280;4324;42.012;24.872;2023-08-30T08:26:35;97918.44;;;29.04;48.97
8573;BME280;4324;42.012;24.872;2023-08-30T08:29:02;97911.25;;;29.08;49.13
8573;BME280;4324;42.012;24.872;2023-08-30T08:31:29;97906.28;;;29.10;49.41
8573;BME280;4324;42.012;24.872;2023-08-30T08:34:07;97911.47;;;29.20;49.71
8573;BME280;4324;42.012;24.872;2023-08-30T08:36:37;97907.13;;;29.19;49.60
8573;BME280;4324;42.012;24.872;2023-08-30T08:39:06;97906.25;;;29.41;49.47
8573;BME280;4324;42.012;24.872;2023-08-30T08:41:39;97901.66;;;29.59;49.18
8573;BME280;4324;42.012;24.872;2023-08-30T08:44:07;97895.44;;;29.76;49.00
8573;BME280;4324;42.012;24.872;2023-08-30T08:46:35;97899.47;;;29.96;48.74
8573;BME280;4324;42.012;24.872;2023-08-30T08:49:08;97888.41;;;30.01;48.13
8573;BME280;4324;42.012;24.872;2023-08-30T08:51:36;97894.03;;;30.04;48.22
8573;BME280;4324;42.012;24.872;2023-08-30T08:54:05;97895.47;;;30.02;48.13
8573;BME280;4324;42.012;24.872;2023-08-30T08:56:34;97899.47;;;29.96;48.51
8573;BME280;4324;42.012;24.872;2023-08-30T08:59:02;97883.44;;;29.85;48.46
8573;BME280;4324;42.012;24.872;2023-08-30T09:01:29;97887.94;;;29.81;48.59
8573;BME280;4324;42.012;24.872;2023-08-30T09:03:57;97874.41;;;29.76;48.60
8573;BME280;4324;42.012;24.872;2023-08-30T09:06:24;97875.88;;;30.00;48.27
8573;BME280;4324;42.012;24.872;2023-08-30T09:08:51;97872.53;;;30.20;47.58
8573;BME280;4324;42.012;24.872;2023-08-30T09:11:19;97877.53;;;30.27;47.72
8573;BME280;4324;42.012;24.872;2023-08-30T09:13:46;97877.69;;;30.30;47.25
8573;BME280;4324;42.012;24.872;2023-08-30T09:16:13;97859.38;;;30.22;47.58
8573;BME280;4324;42.012;24.872;2023-08-30T09:18:40;97876.72;;;30.26;47.24
8573;BME280;4324;42.012;24.872;2023-08-30T09:21:08;97866.44;;;30.23;47.58
8573;BME280;4324;42.012;24.872;2023-08-30T09:23:35;97838.31;;;30.05;47.28
8573;BME280;4324;42.012;24.872;2023-08-30T09:26:02;97858.88;;;30.20;47.44
8573;BME280;4324;42.012;24.872;2023-08-30T09:28:31;97838.78;;;30.16;47.20
8573;BME280;4324;42.012;24.872;2023-08-30T09:30:59;97861.94;;;30.45;47.08
8573;BME280;4324;42.012;24.872;2023-08-30T09:33:33;97860.47;;;30.47;46.72
8573;BME280;4324;42.012;24.872;2023-08-30T09:36:00;97849.88;;;30.46;46.62
8573;BME280;4324;42.012;24.872;2023-08-30T09:38:27;97853.09;;;30.39;46.71
8573;BME280;4324;42.012;24.872;2023-08-30T09:41:02;97842.81;;;30.27;46.71
8573;BME280;4324;42.012;24.872;2023-08-30T09:43:32;97838.00;;;30.24;46.76
8573;BME280;4324;42.012;24.872;2023-08-30T09:46:03;97833.03;;;30.26;46.13
8573;BME280;4324;42.012;24.872;2023-08-30T09:48:30;97837.81;;;30.29;46.43
8573;BME280;4324;42.012;24.872;2023-08-30T09:50:58;97841.06;;;30.23;46.30
8573;BME280;4324;42.012;24.872;2023-08-30T09:53:26;97837.19;;;30.15;46.31
8573;BME280;4324;42.012;24.872;2023-08-30T09:55:54;97835.25;;;30.07;46.35
8573;BME280;4324;42.012;24.872;2023-08-30T09:58:21;97835.94;;;30.04;46.55
8573;BME280;4324;42.012;24.872;2023-08-30T10:00:49;97825.31;;;30.02;46.77
8573;BME280;4324;42.012;24.872;2023-08-30T10:03:17;97829.94;;;30.10;46.47
8573;BME280;4324;42.012;24.872;2023-08-30T10:05:44;97826.44;;;30.27;46.17
8573;BME280;4324;42.012;24.872;2023-08-30T10:08:14;97813.41;;;30.42;45.90
8573;BME280;4324;42.012;24.872;2023-08-30T10:10:40;97810.16;;;30.57;45.83
8573;BME280;4324;42.012;24.872;2023-08-30T10:13:09;97808.31;;;30.70;45.24
8573;BME280;4324;42.012;24.872;2023-08-30T10:15:39;97821.63;;;30.89;44.72
8573;BME280;4324;42.012;24.872;2023-08-30T10:18:09;97809.47;;;31.07;44.50
8573;BME280;4324;42.012;24.872;2023-08-30T10:20:37;97812.13;;;31.24;44.13
8573;BME280;4324;42.012;24.872;2023-08-30T10:23:05;97811.00;;;31.34;43.42
8573;BME280;4324;42.012;24.872;2023-08-30T10:25:34;97802.00;;;31.54;43.24
8573;BME280;4324;42.012;24.872;2023-08-30T10:28:02;97805.66;;;31.79;42.74
8573;BME280;4324;42.012;24.872;2023-08-30T10:30:29;97799.03;;;31.89;42.83
8573;BME280;4324;42.012;24.872;2023-08-30T10:32:57;97793.13;;;31.99;42.33
8573;BME280;4324;42.012;24.872;2023-08-30T10:35:26;97789.00;;;31.93;41.94
8573;BME280;4324;42.012;24.872;2023-08-30T10:37:56;97779.44;;;31.78;42.37
8573;BME280;4324;42.012;24.872;2023-08-30T10:40:23;97791.50;;;31.77;42.01
8573;BME280;4324;42.012;24.872;2023-08-30T10:43:00;97800.19;;;31.79;41.91
8573;BME280;4324;42.012;24.872;2023-08-30T10:45:27;97788.97;;;31.72;42.13
8573;BME280;4324;42.012;24.872;2023-08-30T10:47:56;97795.50;;;31.59;42.43
8573;BME280;4324;42.012;24.872;2023-08-30T10:50:34;97798.06;;;31.64;42.47
8573;BME280;4324;42.012;24.872;2023-08-30T10:53:02;97794.06;;;31.83;42.30
8573;BME280;4324;42.012;24.872;2023-08-30T10:55:30;97788.59;;;31.83;42.43
8573;BME280;4324;42.012;24.872;2023-08-30T10:57:59;97789.50;;;31.66;42.37
8573;BME280;4324;42.012;24.872;2023-08-30T11:00:28;97781.50;;;31.40;42.30
8573;BME280;4324;42.012;24.872;2023-08-30T11:02:55;97778.88;;;31.22;42.63
8573;BME280;4324;42.012;24.872;2023-08-30T11:05:23;97785.16;;;31.14;43.02
8573;BME280;4324;42.012;24.872;2023-08-30T11:07:52;97781.19;;;31.12;42.80
8573;BME280;4324;42.012;24.872;2023-08-30T11:10:20;97781.19;;;31.12;42.80
8573;BME280;4324;42.012;24.872;2023-08-30T11:12:48;97773.41;;;31.22;42.88
8573;BME280;4324;42.012;24.872;2023-08-30T11:15:15;97777.22;;;31.30;42.02
8573;BME280;4324;42.012;24.872;2023-08-30T11:17:43;97773.50;;;31.26;42.12
8573;BME280;4324;42.012;24.872;2023-08-30T11:20:11;97776.78;;;31.19;42.10
8573;BME280;4324;42.012;24.872;2023-08-30T11:22:39;97779.19;;;31.21;42.10
8573;BME280;4324;42.012;24.872;2023-08-30T11:25:10;97759.09;;;31.17;42.07
8573;BME280;4324;42.012;24.872;2023-08-30T11:27:37;97767.16;;;31.13;42.58
8573;BME280;4324;42.012;24.872;2023-08-30T11:30:05;97762.34;;;31.10;42.46
8573;BME280;4324;42.012;24.872;2023-08-30T11:32:32;97758.09;;;31.21;42.12
8573;BME280;4324;42.012;24.872;2023-08-30T11:35:00;97756.56;;;31.41;42.03
8573;BME280;4324;42.012;24.872;2023-08-30T11:37:27;97754.28;;;31.64;42.05
8573;BME280;4324;42.012;24.872;2023-08-30T11:39:55;97749.88;;;31.72;41.20
8573;BME280;4324;42.012;24.872;2023-08-30T11:42:23;97752.25;;;31.73;41.60
8573;BME280;4324;42.012;24.872;2023-08-30T11:44:51;97753.44;;;31.85;41.25
8573;BME280;4324;42.012;24.872;2023-08-30T11:47:18;97746.72;;;32.03;41.17
8573;BME280;4324;42.012;24.872;2023-08-30T11:49:47;97742.00;;;32.37;41.00
8573;BME280;4324;42.012;24.872;2023-08-30T11:52:15;97738.41;;;32.69;39.95
8573;BME280;4324;42.012;24.872;2023-08-30T11:54:42;97734.88;;;32.81;40.13
8573;BME280;4324;42.012;24.872;2023-08-30T11:57:10;97728.28;;;32.94;39.80
8573;BME280;4324;42.012;24.872;2023-08-30T11:59:38;97733.16;;;32.89;39.33
8573;BME280;4324;42.012;24.872;2023-08-30T12:02:06;97705.19;;;32.59;39.65
8573;BME280;4324;42.012;24.872;2023-08-30T12:04:39;97724.03;;;32.60;39.50
8573;BME280;4324;42.012;24.872;2023-08-30T12:07:07;97717.84;;;32.51;39.92
8573;BME280;4324;42.012;24.872;2023-08-30T12:09:34;97714.19;;;32.59;39.91
8573;BME280;4324;42.012;24.872;2023-08-30T12:12:05;97721.75;;;32.74;39.55
8573;BME280;4324;42.012;24.872;2023-08-30T12:14:33;97720.59;;;32.75;39.28
8573;BME280;4324;42.012;24.872;2023-08-30T12:17:02;97713.53;;;32.74;39.50
8573;BME280;4324;42.012;24.872;2023-08-30T12:19:29;97715.13;;;32.75;39.13
8573;BME280;4324;42.012;24.872;2023-08-30T12:22:03;97699.59;;;32.80;39.21
8573;BME280;4324;42.012;24.872;2023-08-30T12:24:41;97700.06;;;32.94;38.81
8573;BME280;4324;42.012;24.872;2023-08-30T12:27:07;97702.91;;;32.97;38.81
8573;BME280;4324;42.012;24.872;2023-08-30T12:29:34;97700.19;;;32.97;38.54
8573;BME280;4324;42.012;24.872;2023-08-30T12:32:03;97687.69;;;33.00;38.71
8573;BME280;4324;42.012;24.872;2023-08-30T12:34:30;97687.91;;;33.19;38.45
8573;BME280;4324;42.012;24.872;2023-08-30T12:37:03;97688.91;;;33.27;38.17
8573;BME280;4324;42.012;24.872;2023-08-30T12:39:29;97684.44;;;33.35;38.37
8573;BME280;4324;42.012;24.872;2023-08-30T12:41:56;97684.41;;;33.47;38.15
8573;BME280;4324;42.012;24.872;2023-08-30T12:44:23;97683.66;;;33.62;37.75
8573;BME280;4324;42.012;24.872;2023-08-30T12:46:50;97676.69;;;33.65;37.64
8573;BME280;4324;42.012;24.872;2023-08-30T12:49:18;97672.25;;;33.60;37.67
8573;BME280;4324;42.012;24.872;2023-08-30T12:51:45;97674.28;;;33.63;37.61
8573;BME280;4324;42.012;24.872;2023-08-30T12:54:12;97663.06;;;33.68;37.66
8573;BME280;4324;42.012;24.872;2023-08-30T12:56:38;97657.06;;;33.79;37.33
8573;BME280;4324;42.012;24.872;2023-08-30T12:59:05;97661.13;;;33.85;37.20
8573;BME280;4324;42.012;24.872;2023-08-30T13:01:32;97643.16;;;33.71;37.17
8573;BME280;4324;42.012;24.872;2023-08-30T13:03:59;97647.00;;;33.55;37.57
8573;BME280;4324;42.012;24.872;2023-08-30T13:06:27;97652.38;;;33.51;37.68
8573;BME280;4324;42.012;24.872;2023-08-30T13:08:54;97653.63;;;33.54;37.85
8573;BME280;4324;42.012;24.872;2023-08-30T13:11:21;97659.66;;;33.59;37.39
8573;BME280;4324;42.012;24.872;2023-08-30T13:13:48;97654.34;;;33.66;37.42